Time;durP1;ratioP1;P1;durP2;ratioP2;P2;SDS_P1;SDS_P2;PMS_P1;PMS_P2;Temp;Humidity;BMP_temperature;BMP_pressure;BME280_temperature;BME280_humidity;BME280_pressure;Samples;Min_cycle;Max_cycle;Signal;HPM_P1;HPM_P2
2021/05/03 00:00:11;;;;;;;4.72;4.22;;;7.00;85.60;;;;;;5003458;28;20100;-74
2021/05/03 00:02:38;;;;;;;5.93;4.10;;;7.00;85.60;;;;;;5003221;28;20030;-73
2021/05/03 00:05:06;;;;;;;5.05;3.95;;;6.90;85.60;;;;;;5010606;28;20037;-72
2021/05/03 00:07:32;;;;;;;6.78;4.30;;;6.80;85.90;;;;;;5000184;28;20015;-73
2021/05/03 00:09:58;;;;;;;6.78;3.88;;;6.80;86.60;;;;;;5009134;28;20026;-73
2021/05/03 00:12:24;;;;;;;4.68;3.53;;;6.80;90.10;;;;;;4995327;28;20101;-73
2021/05/03 00:14:50;;;;;;;4.40;3.67;;;6.70;91.20;;;;;;4994485;28;20193;-73
2021/05/03 00:17:17;;;;;;;6.93;3.33;;;6.50;85.90;;;;;;4994584;28;20089;-73
2021/05/03 00:19:43;;;;;;;4.43;3.70;;;6.40;86.50;;;;;;4976324;28;20113;-73
2021/05/03 00:22:09;;;;;;;4.13;3.72;;;6.20;87.40;;;;;;4994489;28;20030;-73
2021/05/03 00:24:35;;;;;;;5.75;3.75;;;6.10;89.60;;;;;;4993344;28;20035;-73
2021/05/03 00:27:01;;;;;;;5.05;3.45;;;6.00;90.40;;;;;;4977064;28;20022;-73
2021/05/03 00:29:26;;;;;;;5.78;4.45;;;5.90;90.90;;;;;;4976193;28;20449;-73
2021/05/03 00:31:52;;;;;;;5.78;4.00;;;5.80;90.70;;;;;;4979939;28;20125;-73
2021/05/03 00:34:18;;;;;;;7.00;4.40;;;5.80;91.20;;;;;;4994331;28;20029;-73
2021/05/03 00:36:43;;;;;;;6.47;4.22;;;5.70;91.60;;;;;;4976054;28;20038;-73
2021/05/03 00:39:11;;;;;;;8.15;4.20;;;5.70;92.30;;;;;;4994007;28;20046;-73
2021/05/03 00:41:37;;;;;;;5.20;4.15;;;5.60;92.00;;;;;;4993331;28;20027;-73
2021/05/03 00:44:03;;;;;;;5.72;3.85;;;5.60;91.80;;;;;;4994300;28;20029;-74
2021/05/03 00:46:29;;;;;;;4.35;3.70;;;5.50;92.40;;;;;;4975879;28;20062;-73
2021/05/03 00:48:55;;;;;;;4.15;3.75;;;5.50;93.00;;;;;;4993800;28;20136;-73
2021/05/03 00:51:20;;;;;;;5.15;3.78;;;5.40;93.70;;;;;;4993409;28;20168;-70
2021/05/03 00:53:46;;;;;;;6.20;4.72;;;5.40;94.70;;;;;;4993733;28;20058;-73
2021/05/03 00:56:13;;;;;;;8.63;4.40;;;5.40;94.10;;;;;;4976399;28;20034;-73
2021/05/03 00:58:39;;;;;;;5.10;4.07;;;5.40;94.00;;;;;;4981422;28;20128;-73
2021/05/03 01:01:05;;;;;;;4.78;4.10;;;5.40;94.00;;;;;;4998501;28;20559;-71
2021/05/03 01:03:31;;;;;;;5.10;3.97;;;5.40;94.30;;;;;;4998301;28;20105;-72
2021/05/03 01:05:57;;;;;;;6.22;4.57;;;5.40;94.60;;;;;;5002362;28;20033;-73
2021/05/03 01:08:23;;;;;;;6.50;5.15;;;5.40;94.80;;;;;;4998578;28;20436;-69
2021/05/03 01:10:48;;;;;;;7.00;4.20;;;5.40;95.00;;;;;;4998990;28;20105;-72
2021/05/03 01:13:14;;;;;;;5.10;4.15;;;5.30;95.00;;;;;;4982460;28;20026;-71
2021/05/03 01:15:40;;;;;;;5.07;4.35;;;5.40;94.90;;;;;;4983173;28;20458;-73
2021/05/03 01:18:06;;;;;;;6.53;5.38;;;5.30;95.00;;;;;;5003728;28;20030;-71
2021/05/03 01:20:34;;;;;;;6.35;5.22;;;5.40;94.60;;;;;;4999923;28;20458;-71
2021/05/03 01:23:01;;;;;;;7.57;5.78;;;5.40;94.20;;;;;;4981296;28;20085;-72
2021/05/03 01:25:31;;;;;;;7.13;5.78;;;5.50;93.80;;;;;;5002437;28;20049;-71
2021/05/03 01:28:01;;;;;;;;;;;5.50;93.60;;;;;;4981578;28;20030;-71
2021/05/03 01:30:31;;;;;;;6.70;5.40;;;5.60;93.50;;;;;;4990307;28;19913;-72
2021/05/03 01:32:58;;;;;;;7.00;5.57;;;5.60;93.40;;;;;;4978767;28;20081;-72
2021/05/03 01:35:24;;;;;;;7.65;5.78;;;5.60;93.50;;;;;;4991976;28;20121;-71
2021/05/03 01:38:00;;;;;;;8.57;6.05;;;5.60;93.90;;;;;;4975777;28;20034;-72
2021/05/03 01:40:28;;;;;;;8.10;6.65;;;5.60;94.60;;;;;;4975082;28;20452;-72
2021/05/03 01:42:54;;;;;;;7.43;5.65;;;5.60;95.30;;;;;;4976385;28;20030;-74
2021/05/03 01:45:26;;;;;;;7.25;5.97;;;5.60;95.30;;;;;;4993302;28;20106;-70
2021/05/03 01:47:53;;;;;;;6.72;5.60;;;5.50;95.10;;;;;;4993245;28;20030;-74
2021/05/03 01:50:20;;;;;;;6.40;5.22;;;5.50;95.60;;;;;;4993518;28;20540;-74
2021/05/03 01:52:46;;;;;;;6.35;5.18;;;5.40;96.00;;;;;;4981238;28;20064;-74
2021/05/03 01:55:13;;;;;;;6.82;4.70;;;5.30;96.40;;;;;;4994822;28;20030;-72
2021/05/03 01:57:39;;;;;;;5.88;4.72;;;5.20;96.50;;;;;;5011275;28;20117;-73
2021/05/03 02:00:07;;;;;;;5.97;4.90;;;5.10;97.10;;;;;;5011212;28;20109;-73
2021/05/03 02:02:32;;;;;;;11.15;8.10;;;5.10;97.70;;;;;;5011465;28;20113;-73
2021/05/03 02:04:58;;;;;;;8.48;6.18;;;5.10;99.30;;;;;;5012132;28;20057;-73
2021/05/03 02:07:24;;;;;;;8.27;7.20;;;5.00;99.90;;;;;;4976648;28;20037;-69
2021/05/03 02:09:50;;;;;;;10.57;6.32;;;5.00;99.90;;;;;;4992699;28;20027;-73
2021/05/03 02:12:15;;;;;;;7.70;6.40;;;5.00;99.90;;;;;;4991926;28;20383;-73
2021/05/03 02:14:42;;;;;;;7.90;5.68;;;5.00;99.90;;;;;;4984877;28;20026;-73
2021/05/03 02:17:08;;;;;;;8.23;6.32;;;5.00;99.90;;;;;;4994652;28;20041;-73
2021/05/03 02:19:34;;;;;;;8.05;6.03;;;4.90;99.90;;;;;;5008933;28;20475;-72
2021/05/03 02:22:00;;;;;;;7.05;5.97;;;5.10;99.90;;;;;;5011839;28;20103;-72
2021/05/03 02:24:26;;;;;;;8.52;6.07;;;4.90;99.90;;;;;;4993592;28;20467;-71
2021/05/03 02:26:51;;;;;;;9.02;6.25;;;4.90;99.90;;;;;;5012127;28;20037;-72
2021/05/03 02:29:17;;;;;;;9.15;7.50;;;4.90;99.90;;;;;;5012015;28;20434;-71
2021/05/03 02:31:43;;;;;;;7.72;6.45;;;4.60;99.90;;;;;;4993722;28;20044;-73
2021/05/03 02:34:08;;;;;;;10.85;7.22;;;4.60;99.90;;;;;;5004352;28;20034;-72
2021/05/03 02:36:34;;;;;;;9.55;6.93;;;4.60;99.90;;;;;;4986908;28;20463;-72
2021/05/03 02:39:00;;;;;;;9.65;6.65;;;4.50;99.90;;;;;;5011970;28;20458;-73
2021/05/03 02:41:25;;;;;;;9.60;6.93;;;4.40;99.90;;;;;;5009845;28;20113;-69
2021/05/03 02:43:51;;;;;;;8.90;6.35;;;4.30;99.90;;;;;;5011516;28;20022;-73
2021/05/03 02:46:17;;;;;;;8.82;7.35;;;4.20;99.90;;;;;;4994303;28;20025;-74
2021/05/03 02:48:42;;;;;;;8.82;7.18;;;4.20;99.90;;;;;;5007242;28;20014;-74
2021/05/03 02:51:08;;;;;;;10.48;7.68;;;4.20;99.90;;;;;;4974918;28;20026;-73
2021/05/03 02:53:34;;;;;;;10.23;7.57;;;4.10;99.90;;;;;;4973605;28;20065;-72
2021/05/03 02:56:00;;;;;;;10.70;7.07;;;4.10;99.90;;;;;;4992025;28;20383;-72
2021/05/03 02:58:26;;;;;;;13.95;7.93;;;4.10;99.90;;;;;;4991580;28;20368;-68
2021/05/03 03:00:51;;;;;;;9.68;7.80;;;4.10;99.90;;;;;;4991929;28;20426;-72
2021/05/03 03:03:18;;;;;;;12.98;9.07;;;4.00;99.90;;;;;;4992289;28;20437;-72
2021/05/03 03:05:44;;;;;;;11.13;8.55;;;4.00;99.90;;;;;;4988048;28;20050;-72
2021/05/03 03:08:09;;;;;;;13.15;8.80;;;4.00;99.90;;;;;;4958701;28;20068;-72
2021/05/03 03:10:35;;;;;;;13.43;9.05;;;4.00;99.90;;;;;;4991357;28;20033;-72
2021/05/03 03:13:03;;;;;;;11.60;8.75;;;3.90;99.90;;;;;;4994254;28;20065;-72
2021/05/03 03:15:32;;;;;;;9.85;7.88;;;3.90;99.90;;;;;;5010339;28;20042;-72
2021/05/03 03:17:57;;;;;;;11.10;7.80;;;3.90;99.90;;;;;;4994007;28;20117;-72
2021/05/03 03:20:23;;;;;;;12.50;7.90;;;3.90;99.90;;;;;;4999768;28;20146;-69
2021/05/03 03:22:49;;;;;;;11.73;8.10;;;3.90;99.90;;;;;;4991860;28;20041;-73
2021/05/03 03:25:17;;;;;;;13.75;9.02;;;3.90;99.90;;;;;;4995269;28;20069;-72
2021/05/03 03:27:43;;;;;;;11.38;8.13;;;3.90;99.90;;;;;;4994568;28;20034;-71
2021/05/03 03:30:11;;;;;;;12.63;8.75;;;3.90;99.90;;;;;;4995070;28;20398;-72
2021/05/03 03:32:44;;;;;;;11.68;8.50;;;4.00;99.90;;;;;;4994838;28;20033;-73
2021/05/03 03:35:20;;;;;;;11.45;8.13;;;4.00;99.90;;;;;;5004139;28;20467;-73
2021/05/03 03:37:47;;;;;;;12.50;8.50;;;4.00;99.90;;;;;;5013067;28;20113;-73
2021/05/03 03:40:15;;;;;;;12.27;8.45;;;4.00;99.90;;;;;;4997268;28;20052;-72
2021/05/03 03:42:41;;;;;;;12.10;8.05;;;4.00;99.90;;;;;;5012981;28;20025;-72
2021/05/03 03:45:09;;;;;;;11.13;7.95;;;4.00;99.90;;;;;;5013385;28;20034;-72
2021/05/03 03:47:35;;;;;;;14.60;8.45;;;4.00;99.90;;;;;;5013812;28;20025;-73
2021/05/03 03:50:02;;;;;;;16.10;8.55;;;4.10;99.90;;;;;;5013498;28;20088;-73
2021/05/03 03:52:28;;;;;;;12.90;8.23;;;4.10;99.90;;;;;;5013533;28;20438;-69
2021/05/03 03:54:53;;;;;;;9.55;8.10;;;4.10;99.90;;;;;;5014566;28;20038;-73
2021/05/03 03:57:20;;;;;;;12.10;8.75;;;4.10;99.90;;;;;;4997167;28;20374;-72
2021/05/03 03:59:49;;;;;;;11.80;8.77;;;4.10;99.90;;;;;;4995629;28;20018;-72
2021/05/03 04:02:15;;;;;;;13.20;9.27;;;4.20;99.90;;;;;;4997013;28;20029;-72
2021/05/03 04:04:45;;;;;;;10.07;8.32;;;4.10;99.90;;;;;;5012119;28;20037;-72
2021/05/03 04:26:14;;;;;;;13.80;9.23;;;4.10;99.90;;;;;;5014048;28;20044;-72
2021/05/03 04:28:39;;;;;;;12.18;8.43;;;4.10;99.90;;;;;;4995726;28;20402;-72
2021/05/03 04:31:05;;;;;;;11.15;7.82;;;4.10;99.90;;;;;;4996303;28;20030;-72
2021/05/03 04:33:31;;;;;;;14.07;7.97;;;4.10;99.90;;;;;;5013505;28;20034;-72
2021/05/03 04:35:59;;;;;;;12.82;8.88;;;4.10;99.90;;;;;;4992268;28;20038;-71
2021/05/03 04:38:25;;;;;;;12.02;8.80;;;4.00;99.90;;;;;;5013983;28;20061;-73
2021/05/03 04:40:51;;;;;;;10.50;7.70;;;4.10;99.90;;;;;;5013984;28;20455;-73
2021/05/03 04:43:17;;;;;;;11.90;9.00;;;4.10;99.90;;;;;;4996765;28;20033;-73
2021/05/03 04:45:42;;;;;;;11.25;8.85;;;4.10;99.90;;;;;;5013485;28;20030;-73
2021/05/03 04:48:08;;;;;;;13.85;8.70;;;4.10;99.90;;;;;;5019100;28;20030;-74
2021/05/03 04:50:34;;;;;;;10.38;8.63;;;4.10;99.90;;;;;;5013037;28;20036;-73
2021/05/03 04:52:59;;;;;;;12.85;8.68;;;4.10;99.90;;;;;;5013536;28;20508;-73
2021/05/03 04:55:25;;;;;;;18.65;9.13;;;4.20;99.90;;;;;;5013388;28;20430;-69
2021/05/03 04:57:51;;;;;;;12.60;9.00;;;4.20;99.90;;;;;;5011475;28;20489;-73
2021/05/03 05:00:17;;;;;;;11.65;8.52;;;4.30;99.90;;;;;;4995152;28;20571;-72
2021/05/03 05:02:42;;;;;;;10.65;8.48;;;4.30;99.90;;;;;;5006340;28;20037;-72
2021/05/03 05:05:12;;;;;;;13.90;9.68;;;4.40;99.90;;;;;;5013348;28;20438;-73
2021/05/03 05:07:38;;;;;;;15.27;9.82;;;4.50;99.90;;;;;;4975508;28;20493;-72
2021/05/03 05:10:06;;;;;;;12.32;8.63;;;4.60;99.90;;;;;;4976140;28;20030;-73
2021/05/03 05:12:32;;;;;;;11.77;8.85;;;4.70;99.90;;;;;;4974987;28;20026;-72
2021/05/03 05:14:58;;;;;;;10.65;8.18;;;4.80;99.90;;;;;;4993551;28;20061;-73
2021/05/03 05:17:24;;;;;;;11.00;8.43;;;4.90;99.90;;;;;;4975929;28;20486;-73
2021/05/03 05:19:50;;;;;;;13.00;10.02;;;4.90;99.90;;;;;;4995753;28;20408;-72
2021/05/03 05:22:16;;;;;;;10.65;8.27;;;5.00;99.90;;;;;;5000766;28;20114;-73
2021/05/03 05:24:42;;;;;;;13.63;9.55;;;5.10;99.60;;;;;;4993182;28;20034;-73
2021/05/03 05:27:08;;;;;;;14.57;8.65;;;5.10;99.10;;;;;;4993091;28;20479;-73
2021/05/03 05:29:34;;;;;;;10.02;8.05;;;5.20;98.90;;;;;;4996848;28;20064;-72
2021/05/03 05:32:00;;;;;;;11.18;8.40;;;5.30;98.50;;;;;;4994889;28;20026;-72
2021/05/03 05:34:26;;;;;;;12.15;8.63;;;5.40;97.80;;;;;;5012905;28;20069;-71
2021/05/03 05:36:52;;;;;;;10.15;8.02;;;5.50;97.80;;;;;;4994386;28;20041;-72
2021/05/03 05:39:17;;;;;;;10.75;7.90;;;5.60;97.00;;;;;;5013108;28;20099;-73
2021/05/03 05:41:43;;;;;;;11.93;8.77;;;5.80;95.80;;;;;;5011664;28;20030;-76
2021/05/03 05:44:10;;;;;;;11.52;8.27;;;5.90;94.70;;;;;;4994362;28;20120;-73
2021/05/03 05:46:37;;;;;;;12.40;8.07;;;6.00;93.80;;;;;;4992141;28;20030;-73
2021/05/03 05:49:04;;;;;;;10.43;7.63;;;6.00;93.40;;;;;;4975606;28;20022;-75
2021/05/03 05:51:29;;;;;;;10.80;7.65;;;6.10;93.20;;;;;;4975112;28;20030;-68
2021/05/03 05:53:55;;;;;;;10.90;8.13;;;6.10;93.10;;;;;;4992315;28;20050;-73
2021/05/03 05:56:21;;;;;;;11.13;7.70;;;6.00;93.20;;;;;;4977365;28;20478;-73
2021/05/03 05:58:47;;;;;;;9.70;8.23;;;6.10;91.70;;;;;;4990187;28;20049;-74
2021/05/03 06:01:13;;;;;;;8.70;6.93;;;6.10;91.00;;;;;;5008902;28;20514;-74
2021/05/03 06:03:40;;;;;;;8.98;7.03;;;6.10;91.90;;;;;;4993655;28;20395;-75
2021/05/03 06:06:06;;;;;;;9.60;7.78;;;6.10;92.10;;;;;;5004629;28;20053;-74
2021/05/03 06:08:33;;;;;;;9.88;7.60;;;6.30;92.20;;;;;;4974009;28;20026;-68
2021/05/03 06:10:59;;;;;;;11.15;8.48;;;6.40;91.70;;;;;;4992514;28;20299;-75
2021/05/03 06:13:25;;;;;;;11.38;7.68;;;6.60;92.30;;;;;;4992384;28;20111;-80
2021/05/03 06:15:51;;;;;;;9.00;7.22;;;6.70;91.80;;;;;;4999122;28;20115;-75
2021/05/03 06:18:16;;;;;;;11.82;8.25;;;6.90;87.50;;;;;;5011198;28;20490;-72
2021/05/03 06:20:42;;;;;;;9.52;7.43;;;7.00;87.50;;;;;;4992580;28;20391;-72
2021/05/03 06:23:12;;;;;;;9.95;6.80;;;7.10;85.70;;;;;;5011610;28;20034;-71
2021/05/03 06:25:38;;;;;;;15.43;7.38;;;7.20;84.30;;;;;;5011323;28;20136;-72
2021/05/03 06:28:04;;;;;;;9.38;6.45;;;7.30;82.80;;;;;;4994151;28;20030;-71
2021/05/03 06:30:29;;;;;;;8.88;6.03;;;7.40;81.90;;;;;;5002565;28;20105;-69
2021/05/03 06:32:55;;;;;;;13.98;6.75;;;7.60;80.60;;;;;;4973898;28;20379;-79
2021/05/03 06:35:22;;;;;;;7.13;6.18;;;7.70;78.30;;;;;;4974461;28;20062;-79
2021/05/03 06:37:48;;;;;;;8.50;5.88;;;7.80;74.30;;;;;;4991375;28;20372;-78
2021/05/03 06:40:14;;;;;;;6.00;5.40;;;7.90;74.30;;;;;;4993387;28;20034;-79
2021/05/03 06:42:40;;;;;;;9.25;6.45;;;8.00;73.80;;;;;;5010884;28;20450;-76
2021/05/03 06:45:07;;;;;;;7.47;6.18;;;8.10;72.10;;;;;;5010003;28;20121;-79
2021/05/03 06:47:33;;;;;;;6.30;5.55;;;8.20;71.00;;;;;;5010445;28;20463;-71
2021/05/03 06:49:59;;;;;;;7.38;5.53;;;8.30;71.70;;;;;;5008676;28;20120;-78
2021/05/03 06:52:25;;;;;;;8.73;6.05;;;8.30;73.00;;;;;;4991282;28;20054;-77
2021/05/03 06:54:50;;;;;;;7.20;5.53;;;8.50;71.20;;;;;;4992138;28;20044;-79
2021/05/03 06:57:16;;;;;;;9.10;6.45;;;8.50;70.40;;;;;;4974753;28;20117;-80
2021/05/03 06:59:43;;;;;;;7.82;6.07;;;8.80;68.70;;;;;;4977406;28;20455;-80
2021/05/03 07:02:10;;;;;;;7.95;5.97;;;8.90;68.60;;;;;;4995638;28;20033;-77
2021/05/03 07:04:36;;;;;;;10.35;5.85;;;8.90;69.20;;;;;;4994786;28;20459;-78
2021/05/03 07:07:02;;;;;;;8.02;6.22;;;8.90;69.70;;;;;;4995630;28;20029;-77
2021/05/03 07:09:28;;;;;;;9.07;6.10;;;9.00;68.10;;;;;;4995815;28;20030;-76
2021/05/03 07:11:56;;;;;;;8.30;6.65;;;9.20;68.90;;;;;;4994811;28;20101;-79
2021/05/03 07:14:21;;;;;;;7.70;5.65;;;9.40;67.10;;;;;;4995762;28;20033;-77
2021/05/03 07:16:47;;;;;;;10.63;8.00;;;9.50;66.60;;;;;;5001779;28;20041;-78
2021/05/03 07:19:13;;;;;;;14.00;8.25;;;9.60;70.20;;;;;;5001560;28;20032;-77
2021/05/03 07:21:39;;;;;;;12.60;8.68;;;9.50;71.60;;;;;;4994789;28;20030;-78
2021/05/03 07:24:05;;;;;;;11.88;9.68;;;9.50;73.10;;;;;;4995467;28;20478;-76
2021/05/03 07:26:32;;;;;;;14.45;9.75;;;9.50;73.80;;;;;;4995821;28;20050;-78
2021/05/03 07:28:58;;;;;;;11.18;9.15;;;9.50;74.50;;;;;;4977584;28;20030;-77
2021/05/03 07:31:24;;;;;;;12.48;9.05;;;9.60;73.00;;;;;;4995107;28;20026;-79
2021/05/03 07:33:49;;;;;;;12.20;9.43;;;9.70;73.10;;;;;;4976635;28;20489;-77
2021/05/03 07:36:15;;;;;;;11.35;9.05;;;9.70;73.40;;;;;;4995710;28;20129;-79
2021/05/03 07:38:41;;;;;;;12.57;8.68;;;9.90;72.80;;;;;;4981369;28;20077;-77
2021/05/03 07:41:06;;;;;;;12.10;8.90;;;10.00;71.90;;;;;;4996047;28;20478;-79
2021/05/03 07:43:35;;;;;;;11.85;9.45;;;10.10;71.90;;;;;;4997625;28;20034;-78
2021/05/03 07:46:01;;;;;;;15.48;9.68;;;10.20;71.20;;;;;;4990632;28;20041;-78
2021/05/03 07:48:26;;;;;;;16.63;8.68;;;10.30;72.30;;;;;;4996531;28;20034;-77
2021/05/03 07:50:52;;;;;;;11.07;8.95;;;10.40;69.80;;;;;;4976507;28;20033;-77
2021/05/03 07:53:17;;;;;;;13.00;9.13;;;10.40;70.50;;;;;;4995030;28;20089;-78
2021/05/03 07:55:43;;;;;;;10.07;7.55;;;10.30;69.70;;;;;;4994265;28;20038;-79
2021/05/03 07:58:09;;;;;;;13.07;8.68;;;10.20;69.70;;;;;;4994694;28;20038;-78
2021/05/03 08:00:34;;;;;;;12.63;8.85;;;10.30;70.10;;;;;;4994303;28;20376;-70
2021/05/03 08:03:01;;;;;;;13.30;8.75;;;10.40;70.00;;;;;;5013933;28;20352;-78
2021/05/03 08:05:27;;;;;;;10.73;8.23;;;10.40;69.10;;;;;;4980707;28;20038;-78
2021/05/03 08:07:53;;;;;;;16.42;9.00;;;10.40;68.70;;;;;;5013443;28;20029;-78
2021/05/03 08:10:19;;;;;;;11.77;7.72;;;10.40;68.40;;;;;;5013187;28;20030;-78
2021/05/03 08:12:46;;;;;;;14.38;9.50;;;10.40;67.80;;;;;;5013279;28;20034;-77
2021/05/03 08:15:14;;;;;;;12.07;8.13;;;10.40;67.90;;;;;;4995718;28;20026;-79
2021/05/03 08:17:43;;;;;;;12.55;7.78;;;10.40;68.30;;;;;;4995889;28;20036;-77
2021/05/03 08:20:16;;;;;;;8.67;7.57;;;10.50;68.90;;;;;;5014000;28;20022;-77
2021/05/03 08:22:42;;;;;;;12.82;7.35;;;10.50;67.80;;;;;;5013507;28;20049;-76
2021/05/03 08:25:09;;;;;;;12.27;7.38;;;10.50;66.40;;;;;;5013877;28;20037;-77
2021/05/03 08:27:35;;;;;;;13.32;7.70;;;10.40;67.30;;;;;;4996376;28;20030;-70
2021/05/03 08:30:02;;;;;;;7.82;6.70;;;10.30;66.00;;;;;;4995833;28;20482;-78
2021/05/03 08:32:28;;;;;;;11.55;6.72;;;10.20;66.30;;;;;;4996410;28;20022;-79
2021/05/03 08:34:53;;;;;;;7.85;6.35;;;10.20;66.30;;;;;;4994512;28;20026;-78
2021/05/03 08:37:19;;;;;;;13.07;6.72;;;10.30;66.70;;;;;;5013500;28;20029;-76
2021/05/03 08:39:45;;;;;;;8.20;6.35;;;10.40;65.80;;;;;;5010704;28;20025;-78
2021/05/03 08:42:13;;;;;;;10.05;7.07;;;10.50;65.70;;;;;;4996011;28;20030;-79
2021/05/03 08:44:39;;;;;;;12.43;6.68;;;10.60;64.70;;;;;;5012541;28;20467;-72
2021/05/03 08:47:05;;;;;;;9.75;6.60;;;10.80;63.80;;;;;;4995598;28;20037;-79
2021/05/03 08:56:59;;;;;;;11.68;6.25;;;11.30;61.80;;;;;;5012490;28;20066;-79
2021/05/03 08:59:25;;;;;;;10.63;7.60;;;11.20;62.20;;;;;;5013033;28;20033;-78
2021/05/03 09:01:54;;;;;;;8.50;6.68;;;11.20;62.60;;;;;;4994838;28;20026;-78
2021/05/03 09:04:20;;;;;;;8.97;6.17;;;11.20;62.70;;;;;;4995446;28;20072;-77
2021/05/03 09:07:04;;;;;;;9.15;7.18;;;11.20;62.10;;;;;;5011739;28;20272;-73
2021/05/03 09:09:35;;;;;;;9.35;7.10;;;11.20;62.20;;;;;;4995476;28;20026;-78
2021/05/03 09:12:03;;;;;;;12.10;7.15;;;11.30;61.20;;;;;;4994706;28;20378;-77
2021/05/03 09:14:31;;;;;;;12.65;6.85;;;11.50;62.60;;;;;;5012805;28;20061;-77
2021/05/03 09:16:58;;;;;;;11.35;7.18;;;12.10;58.80;;;;;;5011986;28;20130;-78
2021/05/03 09:19:24;;;;;;;7.88;6.00;;;12.50;57.40;;;;;;5013033;28;20056;-79
2021/05/03 09:21:52;;;;;;;7.10;5.78;;;12.90;56.50;;;;;;5011719;28;20028;-78
2021/05/03 09:24:25;;;;;;;6.95;5.85;;;13.30;52.90;;;;;;4995107;28;20493;-78
2021/05/03 09:27:06;;;;;;;6.85;5.05;;;13.60;53.20;;;;;;5011699;28;20038;-76
2021/05/03 09:29:39;;;;;;;6.75;6.05;;;13.40;53.40;;;;;;4995007;28;20486;-80
2021/05/03 09:32:15;;;;;;;7.60;5.82;;;13.10;54.90;;;;;;5010321;28;20071;-79
2021/05/03 09:34:52;;;;;;;5.88;5.13;;;13.00;52.40;;;;;;5011188;28;20080;-70
2021/05/03 09:37:38;;;;;;;8.32;5.57;;;12.70;54.20;;;;;;5012316;28;20095;-79
2021/05/03 09:40:14;;;;;;;9.75;6.10;;;12.70;54.60;;;;;;5012295;28;20057;-77
2021/05/03 09:43:00;;;;;;;7.45;5.07;;;12.70;55.00;;;;;;4987079;28;20463;-78
2021/05/03 09:45:30;;;;;;;8.85;6.13;;;12.60;55.80;;;;;;5008857;28;20037;-78
2021/05/03 09:47:58;;;;;;;;;;;12.60;55.30;;;;;;5013165;28;20057;-78
2021/05/03 09:50:26;;;;;;;7.70;5.68;;;12.60;56.20;;;;;;4992994;28;19905;-79
2021/05/03 09:53:04;;;;;;;5.97;4.90;;;12.70;55.30;;;;;;5008121;28;20053;-79
2021/05/03 09:55:34;;;;;;;7.88;5.88;;;12.80;54.80;;;;;;5010627;28;20034;-77
2021/05/03 09:58:11;;;;;;;7.32;5.50;;;12.80;54.80;;;;;;4994168;28;20602;-78
2021/05/03 10:00:39;;;;;;;7.38;5.57;;;12.90;54.00;;;;;;4994521;28;20525;-78
2021/05/03 10:03:32;;;;;;;9.10;5.65;;;12.90;53.60;;;;;;5011385;28;20505;-79
2021/05/03 10:05:58;;;;;;;6.38;5.10;;;13.00;53.90;;;;;;4999382;28;20057;-79
2021/05/03 10:08:25;;;;;;;5.30;4.35;;;13.10;53.50;;;;;;4996707;28;20405;-79
2021/05/03 10:10:53;;;;;;;7.10;4.72;;;13.30;53.50;;;;;;4991614;28;20468;-79
2021/05/03 10:13:20;;;;;;;6.68;5.53;;;13.60;50.70;;;;;;4992469;28;20049;-78
2021/05/03 10:15:47;;;;;;;8.10;5.47;;;13.60;50.70;;;;;;5000008;28;20034;-78
2021/05/03 10:18:18;;;;;;;7.00;5.57;;;13.80;52.30;;;;;;4994649;28;20022;-80
2021/05/03 10:20:45;;;;;;;8.15;5.35;;;13.90;52.70;;;;;;5011270;28;20036;-79
2021/05/03 10:23:13;;;;;;;7.10;4.55;;;13.80;52.40;;;;;;5011971;28;20026;-80
2021/05/03 10:25:41;;;;;;;4.80;4.30;;;13.80;52.30;;;;;;5011838;28;20037;-72
2021/05/03 10:28:08;;;;;;;4.85;3.15;;;13.80;49.70;;;;;;5009457;28;20034;-80
2021/05/03 10:30:42;;;;;;;3.63;2.90;;;13.80;45.60;;;;;;4994243;28;20037;-79
2021/05/03 10:33:10;;;;;;;3.95;2.83;;;13.90;43.50;;;;;;5011476;28;20076;-80
2021/05/03 10:35:40;;;;;;;5.82;3.58;;;14.10;47.10;;;;;;4997215;28;20034;-79
2021/05/03 10:38:26;;;;;;;6.30;3.00;;;14.30;43.80;;;;;;5004225;28;20116;-77
2021/05/03 10:40:52;;;;;;;4.97;4.03;;;14.30;44.80;;;;;;4994704;28;20598;-79
2021/05/03 10:43:20;;;;;;;6.57;3.92;;;14.20;46.50;;;;;;5023937;28;20026;-80
2021/05/03 10:54:23;;;;;;;4.40;3.83;;;13.10;48.80;;;;;;4983112;28;20840;-77
2021/05/03 10:56:49;;;;;;;3.67;3.35;;;13.10;48.00;;;;;;4991460;28;20542;-78
2021/05/03 10:59:16;;;;;;;3.80;3.03;;;13.00;48.80;;;;;;4993890;28;20023;-79
2021/05/03 11:01:54;;;;;;;3.97;2.95;;;13.00;49.20;;;;;;4993601;28;20133;-70
2021/05/03 11:04:25;;;;;;;3.58;3.13;;;13.10;49.20;;;;;;5011407;28;20493;-79
2021/05/03 11:06:50;;;;;;;4.57;3.63;;;13.20;45.60;;;;;;5010393;28;20470;-77
2021/05/03 11:09:27;;;;;;;4.13;2.88;;;13.40;46.30;;;;;;5011858;28;20045;-76
2021/05/03 11:11:54;;;;;;;4.72;2.97;;;13.80;46.60;;;;;;5010866;28;20022;-78
2021/05/03 11:14:21;;;;;;;3.53;3.15;;;14.10;45.50;;;;;;5011740;28;20033;-77
2021/05/03 11:19:48;;;;;;;4.55;3.30;;;14.30;45.00;;;;;;5011484;28;20030;-77
2021/05/03 11:22:20;;;;;;;5.35;3.10;;;14.30;43.30;;;;;;5007526;28;20430;-79
2021/05/03 11:24:52;;;;;;;4.15;3.30;;;14.20;43.50;;;;;;5010295;28;20034;-74
2021/05/03 11:27:30;;;;;;;6.03;2.40;;;13.90;43.80;;;;;;5011211;28;20080;-75
2021/05/03 11:30:15;;;;;;;3.55;2.83;;;13.80;45.40;;;;;;4992811;28;20029;-76
2021/05/03 11:32:41;;;;;;;4.13;2.60;;;13.80;44.00;;;;;;5011037;28;20418;-70
2021/05/03 11:37:56;;;;;;;3.90;2.80;;;13.90;43.70;;;;;;5010246;28;20041;-69
2021/05/03 11:40:37;;;;;;;3.00;2.70;;;14.00;43.30;;;;;;5010740;28;20049;-76
2021/05/03 11:43:37;;;;;;;3.40;2.53;;;14.20;42.60;;;;;;5010883;28;20025;-75
2021/05/03 11:46:10;;;;;;;3.10;2.30;;;14.20;44.30;;;;;;5013506;28;20534;-77
2021/05/03 11:48:37;;;;;;;3.35;2.85;;;14.30;43.00;;;;;;5014299;28;20030;-77
2021/05/03 11:51:11;;;;;;;3.92;2.50;;;14.80;42.80;;;;;;4988980;28;20030;-74
2021/05/03 11:53:41;;;;;;;3.53;2.53;;;15.30;40.00;;;;;;5007099;28;20047;-77
2021/05/03 11:56:17;;;;;;;6.07;3.13;;;15.30;40.00;;;;;;4995545;28;20081;-75
2021/05/03 11:58:48;;;;;;;3.38;2.50;;;15.10;39.80;;;;;;5013845;28;20030;-69
2021/05/03 12:01:16;;;;;;;3.78;2.00;;;14.90;40.00;;;;;;5014447;28;20029;-76
2021/05/03 12:03:50;;;;;;;2.75;2.35;;;14.70;41.10;;;;;;5013852;28;20049;-71
2021/05/03 12:06:35;;;;;;;2.55;2.00;;;14.80;40.20;;;;;;5005554;28;20041;-76
2021/05/03 12:09:02;;;;;;;3.67;2.28;;;15.30;39.70;;;;;;4993999;28;20022;-76
2021/05/03 12:11:28;;;;;;;2.58;1.70;;;16.00;38.40;;;;;;4994218;28;20042;-76
2021/05/03 12:13:57;;;;;;;2.05;1.83;;;16.60;37.50;;;;;;4993758;28;20034;-75
2021/05/03 12:16:40;;;;;;;3.53;2.05;;;17.20;35.40;;;;;;4992833;28;20049;-76
2021/05/03 12:19:13;;;;;;;4.93;1.90;;;17.20;33.50;;;;;;5013346;28;20022;-76
2021/05/03 12:21:39;;;;;;;3.60;1.80;;;16.80;35.60;;;;;;5013729;28;20038;-73
2021/05/03 12:24:19;;;;;;;2.60;1.90;;;16.60;36.70;;;;;;5013452;28;20040;-78
2021/05/03 12:26:56;;;;;;;2.83;1.70;;;16.40;36.00;;;;;;5013435;28;20037;-69
2021/05/03 12:29:23;;;;;;;3.72;1.85;;;16.50;35.40;;;;;;5014083;28;20121;-77
2021/05/03 12:31:49;;;;;;;1.67;1.42;;;16.80;35.30;;;;;;5013252;28;20041;-75
2021/05/03 12:34:21;;;;;;;3.28;2.05;;;16.90;35.50;;;;;;5014326;28;20026;-77
2021/05/03 12:37:05;;;;;;;3.13;1.92;;;17.00;34.70;;;;;;5013599;28;20113;-71
2021/05/03 12:39:37;;;;;;;2.53;2.00;;;16.50;35.60;;;;;;4996259;28;20030;-76
2021/05/03 12:42:17;;;;;;;2.67;1.50;;;16.30;36.60;;;;;;4995289;28;20060;-77
2021/05/03 12:44:46;;;;;;;1.63;1.52;;;16.20;37.00;;;;;;4996239;28;20522;-72
2021/05/03 12:50:03;;;;;;;2.58;1.50;;;15.90;36.90;;;;;;4993290;28;20033;-77
2021/05/03 12:52:38;;;;;;;2.15;1.75;;;16.10;36.30;;;;;;4976066;28;20061;-73
2021/05/03 12:55:11;;;;;;;1.80;1.70;;;16.20;36.90;;;;;;4992986;28;20041;-76
2021/05/03 12:58:05;;;;;;;3.17;1.80;;;16.10;36.20;;;;;;4976156;28;20037;-77
2021/05/03 13:01:37;;;;;;;2.33;1.85;;;16.00;36.00;;;;;;4995590;28;20081;-78
2021/05/03 13:03:45;;;;;;;1.83;1.40;;;16.00;36.30;;;;;;4980454;28;20046;-77
2021/05/03 13:06:27;;;;;;;4.28;1.50;;;15.90;36.80;;;;;;4975810;28;20026;-77
2021/05/03 13:29:11;;;;;;;1.60;1.50;;;16.00;36.20;;;;;;4992940;28;20034;-70
2021/05/03 13:31:38;;;;;;;2.67;1.50;;;15.90;36.10;;;;;;4993815;28;20102;-78
2021/05/03 13:34:07;;;;;;;2.15;1.48;;;15.90;36.40;;;;;;4977271;28;20030;-77
2021/05/03 13:36:33;;;;;;;1.95;1.60;;;16.00;36.50;;;;;;4993690;28;20066;-78
2021/05/03 13:38:59;;;;;;;1.50;1.40;;;15.90;36.30;;;;;;4975381;28;20387;-77
2021/05/03 13:41:25;;;;;;;2.35;1.45;;;16.00;37.10;;;;;;4994230;28;20077;-76
2021/05/03 13:43:51;;;;;;;3.47;1.70;;;16.30;36.40;;;;;;4993929;28;20026;-70
2021/05/03 13:46:18;;;;;;;2.38;1.63;;;16.40;36.20;;;;;;5005496;28;20125;-76
2021/05/03 13:48:43;;;;;;;1.98;1.70;;;16.40;36.20;;;;;;5012330;28;20057;-76
2021/05/03 13:51:15;;;;;;;1.65;1.55;;;16.30;35.70;;;;;;4994263;28;20056;-75
2021/05/03 13:53:41;;;;;;;1.42;1.33;;;16.30;35.60;;;;;;4959667;28;20054;-74
2021/05/03 13:56:07;;;;;;;2.13;1.33;;;16.20;35.60;;;;;;4992097;28;20038;-76
2021/05/03 13:58:33;;;;;;;3.50;1.60;;;16.10;36.10;;;;;;4975186;28;20117;-74